Time;durP1;ratioP1;P1;durP2;ratioP2;P2;SDS_P1;SDS_P2;PMS_P1;PMS_P2;Temp;Humidity;BMP_temperature;BMP_pressure;BME280_temperature;BME280_humidity;BME280_pressure;Samples;Min_cycle;Max_cycle;Signal;HPM_P1;HPM_P2
2021/07/31 00:00:27;;;;;;;;;;;;;;;;;;1032807;28;19937;-77
2021/07/31 00:00:57;;;;;;;;;;;;;;;;;;1029161;28;19929;-77
2021/07/31 00:01:27;;;;;;;;;;;;;;;;;;1033085;28;19906;-77
2021/07/31 00:01:58;;;;;;;;;;;;;;;;;;1033316;28;19953;-78
2021/07/31 00:02:28;;;;;;;;;;;;;;;;;;1036675;28;19944;-76
2021/07/31 00:02:58;;;;;;;;;;;;;;;;;;1028917;28;19917;-76
2021/07/31 00:03:28;;;;;;;;;;;;;;;;;;1028902;28;19910;-77
2021/07/31 00:03:59;;;;;;;;;;;;;;;;;;1028811;28;20387;-77
2021/07/31 00:04:29;;;;;;;;;;;;;;;;;;1028860;28;20269;-78
2021/07/31 00:04:59;;;;;;;;;;;;;;;;;;1033072;28;20005;-77
2021/07/31 00:05:29;;;;;;;;;;;;;;;;;;1033015;28;19957;-78
2021/07/31 00:06:00;;;;;;;;;;;;;;;;;;1036958;28;20279;-77
2021/07/31 00:06:30;;;;;;;;;;;;;;;;;;1028641;28;19961;-78
2021/07/31 00:07:00;;;;;;;;;;;;;;;;;;1028899;28;19913;-77
2021/07/31 00:07:30;;;;;;;;;;;;;;;;;;1029028;28;19993;-77
2021/07/31 00:08:01;;;;;;;;;;;;;;;;;;1029081;28;19946;-77
2021/07/31 00:08:31;;;;;;;;;;;;;;;;;;1024741;29;19918;-77
2021/07/31 00:09:01;;;;;;;;;;;;;;;;;;1028739;28;20422;-77
2021/07/31 00:09:31;;;;;;;;;;;;;;;;;;1032888;28;19916;-77
2021/07/31 00:10:02;;;;;;;;;;;;;;;;;;1033029;28;19913;-78
2021/07/31 00:10:32;;;;;;;;;;;;;;;;;;1037186;28;19910;-77
2021/07/31 00:11:02;;;;;;;;;;;;;;;;;;1037156;28;19914;-77
2021/07/31 00:11:33;;;;;;;;;;;;;;;;;;1036816;28;19922;-78
2021/07/31 00:12:03;;;;;;;;;;;;;;;;;;1032875;28;19910;-77
2021/07/31 00:12:33;;;;;;;;;;;;;;;;;;1033271;28;20041;-77
2021/07/31 00:13:03;;;;;;;;;;;;;;;;;;1028709;28;19917;-77
2021/07/31 00:13:34;;;;;;;;;;;;;;;;;;1025273;28;20380;-78
2021/07/31 00:14:04;;;;;;;;;;;;;;;;;;1025132;29;19953;-78
2021/07/31 00:14:34;;;;;;;;;;;;;;;;;;1025056;29;20284;-78
2021/07/31 00:15:05;;;;;;;;;;;;;;;;;;1024740;28;19907;-77
2021/07/31 00:15:35;;;;;;;;;;;;;;;;;;1029096;28;19911;-78
2021/07/31 00:16:05;;;;;;;;;;;;;;;;;;1033385;28;19926;-78
2021/07/31 00:16:36;;;;;;;;;;;;;;;;;;1033026;28;19906;-78
2021/07/31 00:17:07;;;;;;;;;;;;;;;;;;1036842;28;20390;-77
2021/07/31 00:17:37;;;;;;;;;;;;;;;;;;1036946;28;19906;-78
2021/07/31 00:18:08;;;;;;;;;;;;;;;;;;1028764;28;19906;-77
2021/07/31 00:18:38;;;;;;;;;;;;;;;;;;1028917;28;19906;-77
2021/07/31 00:19:08;;;;;;;;;;;;;;;;;;1028635;28;19957;-76
2021/07/31 00:19:38;;;;;;;;;;;;;;;;;;1028729;28;20360;-77
2021/07/31 00:20:09;;;;;;;;;;;;;;;;;;1032982;28;19909;-79
2021/07/31 00:20:39;;;;;;;;;;;;;;;;;;1032675;28;20295;-77
2021/07/31 00:21:09;;;;;;;;;;;;;;;;;;1033065;28;19956;-78
2021/07/31 00:21:39;;;;;;;;;;;;;;;;;;1037470;28;19908;-78
2021/07/31 00:22:10;;;;;;;;;;;;;;;;;;1037479;28;19913;-78
2021/07/31 00:22:40;;;;;;;;;;;;;;;;;;1037164;28;20240;-79
2021/07/31 00:23:10;;;;;;;;;;;;;;;;;;1036899;28;20022;-78
2021/07/31 00:23:41;;;;;;;;;;;;;;;;;;1028715;28;19909;-78
2021/07/31 00:24:11;;;;;;;;;;;;;;;;;;1028794;28;19907;-77
2021/07/31 00:24:41;;;;;;;;;;;;;;;;;;1028880;28;19907;-76
2021/07/31 00:25:11;;;;;;;;;;;;;;;;;;1024722;28;19906;-77
2021/07/31 00:25:42;;;;;;;;;;;;;;;;;;1032794;28;19922;-76
2021/07/31 00:26:12;;;;;;;;;;;;;;;;;;1032788;28;19996;-78
2021/07/31 00:26:42;;;;;;;;;;;;;;;;;;1032914;28;19906;-77
2021/07/31 00:27:12;;;;;;;;;;;;;;;;;;1037231;28;20359;-77
2021/07/31 00:27:43;;;;;;;;;;;;;;;;;;1036680;28;19997;-76
2021/07/31 00:28:13;;;;;;;;;;;;;;;;;;1036950;28;19913;-76
2021/07/31 00:28:43;;;;;;;;;;;;;;;;;;1036676;28;20275;-76
2021/07/31 00:29:13;;;;;;;;;;;;;;;;;;1036655;28;19933;-78
2021/07/31 00:29:44;;;;;;;;;;;;;;;;;;1036981;28;19913;-78
2021/07/31 00:30:14;;;;;;;;;;;;;;;;;;1037252;28;20268;-76
2021/07/31 00:30:44;;;;;;;;;;;;;;;;;;1036806;28;20389;-76
2021/07/31 00:31:15;;;;;;;;;;;;;;;;;;1028600;28;19910;-77
2021/07/31 00:31:45;;;;;;;;;;;;;;;;;;1028694;28;19910;-76
2021/07/31 00:32:15;;;;;;;;;;;;;;;;;;1029070;28;20454;-78
2021/07/31 00:32:45;;;;;;;;;;;;;;;;;;1028885;28;19910;-78
2021/07/31 00:33:15;;;;;;;;;;;;;;;;;;1032909;28;19912;-78
2021/07/31 00:33:46;;;;;;;;;;;;;;;;;;1032780;28;20004;-78
2021/07/31 00:34:16;;;;;;;;;;;;;;;;;;1033118;28;20462;-77
2021/07/31 00:34:46;;;;;;;;;;;;;;;;;;1032524;28;19968;-77
2021/07/31 00:35:17;;;;;;;;;;;;;;;;;;1032658;28;19906;-77
2021/07/31 00:35:47;;;;;;;;;;;;;;;;;;1032751;28;20092;-77
2021/07/31 00:36:17;;;;;;;;;;;;;;;;;;1032932;28;19997;-77
2021/07/31 00:36:47;;;;;;;;;;;;;;;;;;1032984;28;19906;-78
2021/07/31 00:37:18;;;;;;;;;;;;;;;;;;1036985;28;20505;-78
2021/07/31 00:37:48;;;;;;;;;;;;;;;;;;1036957;28;19906;-76
2021/07/31 00:38:18;;;;;;;;;;;;;;;;;;1032921;28;19910;-77
2021/07/31 00:38:48;;;;;;;;;;;;;;;;;;1032700;28;19906;-77
2021/07/31 00:39:19;;;;;;;;;;;;;;;;;;1028554;28;19910;-78
2021/07/31 00:39:49;;;;;;;;;;;;;;;;;;1028663;28;20410;-77
2021/07/31 00:40:19;;;;;;;;;;;;;;;;;;1028659;28;19906;-78
2021/07/31 00:40:49;;;;;;;;;;;;;;;;;;1028891;28;20407;-78
2021/07/31 00:41:20;;;;;;;;;;;;;;;;;;1028682;28;19902;-77
2021/07/31 00:41:50;;;;;;;;;;;;;;;;;;1028907;28;19906;-78
2021/07/31 00:42:20;;;;;;;;;;;;;;;;;;1028644;28;20359;-76
2021/07/31 00:42:51;;;;;;;;;;;;;;;;;;1028660;28;19906;-77
2021/07/31 00:43:21;;;;;;;;;;;;;;;;;;1028651;28;19913;-77
2021/07/31 00:43:51;;;;;;;;;;;;;;;;;;1028557;28;19910;-77
2021/07/31 00:44:21;;;;;;;;;;;;;;;;;;1036635;28;19906;-78
2021/07/31 00:44:52;;;;;;;;;;;;;;;;;;1036662;28;19906;-78
2021/07/31 00:45:22;;;;;;;;;;;;;;;;;;1036700;28;19906;-77
2021/07/31 00:45:52;;;;;;;;;;;;;;;;;;1036772;28;19996;-76
2021/07/31 00:46:22;;;;;;;;;;;;;;;;;;1028579;28;19907;-77
2021/07/31 00:46:53;;;;;;;;;;;;;;;;;;1024816;28;20272;-76
2021/07/31 00:47:23;;;;;;;;;;;;;;;;;;1028662;28;19954;-76
2021/07/31 00:47:53;;;;;;;;;;;;;;;;;;1024581;29;19997;-76
2021/07/31 00:48:23;;;;;;;;;;;;;;;;;;1028726;28;20343;-76
2021/07/31 00:48:54;;;;;;;;;;;;;;;;;;1028501;28;19913;-77
2021/07/31 00:49:24;;;;;;;;;;;;;;;;;;1020590;29;19907;-77
2021/07/31 00:49:54;;;;;;;;;;;;;;;;;;1024782;29;20397;-75
2021/07/31 00:50:25;;;;;;;;;;;;;;;;;;1024663;28;19935;-78
2021/07/31 00:50:55;;;;;;;;;;;;;;;;;;1028700;28;19924;-77
2021/07/31 00:51:25;;;;;;;;;;;;;;;;;;1036960;28;20363;-78
2021/07/31 00:51:55;;;;;;;;;;;;;;;;;;1037087;28;19905;-78
2021/07/31 00:52:26;;;;;;;;;;;;;;;;;;1037054;28;19928;-78
2021/07/31 00:52:56;;;;;;;;;;;;;;;;;;1037119;28;20000;-78
2021/07/31 00:53:26;;;;;;;;;;;;;;;;;;1036692;28;19910;-78
2021/07/31 00:53:56;;;;;;;;;;;;;;;;;;1032923;28;19921;-77
2021/07/31 00:54:27;;;;;;;;;;;;;;;;;;1032663;28;19992;-77
2021/07/31 00:54:57;;;;;;;;;;;;;;;;;;1028630;28;19949;-77
2021/07/31 00:55:27;;;;;;;;;;;;;;;;;;1028738;28;20276;-77
2021/07/31 00:55:58;;;;;;;;;;;;;;;;;;1032758;28;19966;-77
2021/07/31 00:56:28;;;;;;;;;;;;;;;;;;1028698;28;19960;-77
2021/07/31 00:56:58;;;;;;;;;;;;;;;;;;1028681;28;19910;-77
2021/07/31 00:57:29;;;;;;;;;;;;;;;;;;1028644;28;19917;-78
2021/07/31 00:57:59;;;;;;;;;;;;;;;;;;1032781;28;19910;-78
2021/07/31 00:58:29;;;;;;;;;;;;;;;;;;1036475;28;20350;-77
2021/07/31 00:58:59;;;;;;;;;;;;;;;;;;1036587;28;19916;-77
2021/07/31 00:59:30;;;;;;;;;;;;;;;;;;1036809;28;20053;-77
2021/07/31 01:00:00;;;;;;;;;;;;;;;;;;1036704;28;19940;-77
2021/07/31 01:00:30;;;;;;;;;;;;;;;;;;1036990;28;19914;-77
2021/07/31 01:01:00;;;;;;;;;;;;;;;;;;1036955;28;20374;-76
2021/07/31 01:01:31;;;;;;;;;;;;;;;;;;1037327;28;19905;-78
2021/07/31 01:02:01;;;;;;;;;;;;;;;;;;1036974;28;19996;-77
2021/07/31 01:02:31;;;;;;;;;;;;;;;;;;1036902;28;19910;-76
2021/07/31 01:03:01;;;;;;;;;;;;;;;;;;1036400;28;19909;-76
2021/07/31 01:03:32;;;;;;;;;;;;;;;;;;1036625;28;19910;-78
2021/07/31 01:04:02;;;;;;;;;;;;;;;;;;1036920;28;20323;-78
2021/07/31 01:04:32;;;;;;;;;;;;;;;;;;1032950;28;19993;-77
2021/07/31 01:05:02;;;;;;;;;;;;;;;;;;1032588;28;19953;-77
2021/07/31 01:05:33;;;;;;;;;;;;;;;;;;1032835;28;20386;-79
2021/07/31 01:06:03;;;;;;;;;;;;;;;;;;1032798;28;19913;-77
2021/07/31 01:06:33;;;;;;;;;;;;;;;;;;1037036;28;19914;-78
2021/07/31 01:07:03;;;;;;;;;;;;;;;;;;1036892;28;19915;-77
2021/07/31 01:07:34;;;;;;;;;;;;;;;;;;1036652;28;19937;-77
2021/07/31 01:08:04;;;;;;;;;;;;;;;;;;1032682;28;19952;-77
2021/07/31 01:08:35;;;;;;;;;;;;;;;;;;1032592;28;19910;-77
2021/07/31 01:09:05;;;;;;;;;;;;;;;;;;1032464;28;20299;-76
2021/07/31 01:09:35;;;;;;;;;;;;;;;;;;1032419;28;19906;-77
2021/07/31 01:10:06;;;;;;;;;;;;;;;;;;1032696;28;20368;-77
2021/07/31 01:10:36;;;;;;;;;;;;;;;;;;1032685;28;19957;-76
2021/07/31 01:11:06;;;;;;;;;;;;;;;;;;1032535;28;20340;-76
2021/07/31 01:11:36;;;;;;;;;;;;;;;;;;1028488;28;19914;-76
2021/07/31 01:12:07;;;;;;;;;;;;;;;;;;1028697;28;20376;-76
2021/07/31 01:12:37;;;;;;;;;;;;;;;;;;1032452;28;19987;-77
2021/07/31 01:13:07;;;;;;;;;;;;;;;;;;1032494;28;19935;-77
2021/07/31 01:13:37;;;;;;;;;;;;;;;;;;1032535;28;19937;-76
2021/07/31 01:14:08;;;;;;;;;;;;;;;;;;1036682;28;20390;-77
2021/07/31 01:14:38;;;;;;;;;;;;;;;;;;1036814;28;19909;-77
2021/07/31 01:15:08;;;;;;;;;;;;;;;;;;1036455;28;19906;-77
2021/07/31 01:15:38;;;;;;;;;;;;;;;;;;1036584;28;19957;-76
2021/07/31 01:16:09;;;;;;;;;;;;;;;;;;1028484;28;20341;-76
2021/07/31 01:16:39;;;;;;;;;;;;;;;;;;1028687;28;19910;-76
2021/07/31 01:17:12;;;;;;;;;;;;;;;;;;1028478;28;19913;-76
2021/07/31 01:17:42;;;;;;;;;;;;;;;;;;1029331;28;19910;-77
2021/07/31 01:18:12;;;;;;;;;;;;;;;;;;1036822;28;20367;-77
2021/07/31 01:18:43;;;;;;;;;;;;;;;;;;1036962;28;19909;-77
2021/07/31 01:19:13;;;;;;;;;;;;;;;;;;1036460;28;19953;-76
2021/07/31 01:19:44;;;;;;;;;;;;;;;;;;1036547;28;19959;-77
2021/07/31 01:20:14;;;;;;;;;;;;;;;;;;1032406;28;20266;-77
2021/07/31 01:20:44;;;;;;;;;;;;;;;;;;1032578;28;19949;-77
2021/07/31 01:21:14;;;;;;;;;;;;;;;;;;1032376;28;19933;-76
2021/07/31 01:21:45;;;;;;;;;;;;;;;;;;1028649;28;20252;-79
2021/07/31 01:22:15;;;;;;;;;;;;;;;;;;1028968;28;19910;-78
2021/07/31 01:22:45;;;;;;;;;;;;;;;;;;1028637;28;19907;-78
2021/07/31 01:23:16;;;;;;;;;;;;;;;;;;1024730;29;19911;-78
2021/07/31 01:23:46;;;;;;;;;;;;;;;;;;1028675;28;20393;-78
2021/07/31 01:24:16;;;;;;;;;;;;;;;;;;1028487;28;19988;-77
2021/07/31 01:24:46;;;;;;;;;;;;;;;;;;1024727;29;19915;-77
2021/07/31 01:25:17;;;;;;;;;;;;;;;;;;1032548;28;19972;-77
2021/07/31 01:25:47;;;;;;;;;;;;;;;;;;1032610;28;19917;-77
2021/07/31 01:26:17;;;;;;;;;;;;;;;;;;1032422;28;19909;-77
2021/07/31 01:26:47;;;;;;;;;;;;;;;;;;1028607;28;19993;-77
2021/07/31 01:27:19;;;;;;;;;;;;;;;;;;1028597;28;20405;-77
2021/07/31 01:27:50;;;;;;;;;;;;;;;;;;1024561;28;19958;-77
2021/07/31 01:28:20;;;;;;;;;;;;;;;;;;1024465;29;19914;-77
2021/07/31 01:28:50;;;;;;;;;;;;;;;;;;1024674;28;20396;-77
2021/07/31 01:29:20;;;;;;;;;;;;;;;;;;1024320;29;19906;-77
2021/07/31 01:29:51;;;;;;;;;;;;;;;;;;1028210;28;19907;-77
2021/07/31 01:30:21;;;;;;;;;;;;;;;;;;1028454;28;19914;-76
2021/07/31 01:30:51;;;;;;;;;;;;;;;;;;1028419;28;19957;-76
2021/07/31 01:31:21;;;;;;;;;;;;;;;;;;1028491;28;19910;-76
2021/07/31 01:31:52;;;;;;;;;;;;;;;;;;1028563;28;20009;-78
2021/07/31 01:32:22;;;;;;;;;;;;;;;;;;1028478;28;19960;-75
2021/07/31 01:32:53;;;;;;;;;;;;;;;;;;1028467;28;19910;-75
2021/07/31 01:33:23;;;;;;;;;;;;;;;;;;1028471;28;19954;-76
2021/07/31 01:33:53;;;;;;;;;;;;;;;;;;1028495;28;19910;-76
2021/07/31 01:34:23;;;;;;;;;;;;;;;;;;1032489;28;19960;-75
2021/07/31 01:34:54;;;;;;;;;;;;;;;;;;1032339;28;19918;-76
2021/07/31 01:35:24;;;;;;;;;;;;;;;;;;1032098;28;20364;-76
2021/07/31 01:35:54;;;;;;;;;;;;;;;;;;1032647;28;20040;-76
2021/07/31 01:36:24;;;;;;;;;;;;;;;;;;1028264;28;20372;-77
2021/07/31 01:36:55;;;;;;;;;;;;;;;;;;1028605;28;20002;-76
2021/07/31 01:37:25;;;;;;;;;;;;;;;;;;1028356;28;19910;-77
2021/07/31 01:37:55;;;;;;;;;;;;;;;;;;1028568;28;19906;-75
2021/07/31 01:38:25;;;;;;;;;;;;;;;;;;1028476;28;20358;-77
2021/07/31 01:38:56;;;;;;;;;;;;;;;;;;1028605;28;19957;-77
2021/07/31 01:39:26;;;;;;;;;;;;;;;;;;1032474;28;19941;-77
2021/07/31 01:39:56;;;;;;;;;;;;;;;;;;1032785;28;19913;-76
2021/07/31 01:40:26;;;;;;;;;;;;;;;;;;1036412;28;19921;-78
2021/07/31 01:40:57;;;;;;;;;;;;;;;;;;1036666;28;19913;-76
2021/07/31 01:41:27;;;;;;;;;;;;;;;;;;1036697;28;20350;-77
2021/07/31 01:41:57;;;;;;;;;;;;;;;;;;1038616;28;19906;-77
2021/07/31 01:42:27;;;;;;;;;;;;;;;;;;1034288;28;19913;-77
2021/07/31 01:42:58;;;;;;;;;;;;;;;;;;1030603;28;19906;-76
2021/07/31 01:43:28;;;;;;;;;;;;;;;;;;1026463;29;19914;-77
2021/07/31 01:43:58;;;;;;;;;;;;;;;;;;1026359;28;19911;-77
2021/07/31 01:44:28;;;;;;;;;;;;;;;;;;1030370;28;19902;-78
2021/07/31 01:44:59;;;;;;;;;;;;;;;;;;1033833;28;19902;-78
2021/07/31 01:45:29;;;;;;;;;;;;;;;;;;1037057;28;19905;-77
2021/07/31 01:45:59;;;;;;;;;;;;;;;;;;1036384;28;19932;-77
2021/07/31 01:46:29;;;;;;;;;;;;;;;;;;1036492;28;19980;-77
2021/07/31 01:47:00;;;;;;;;;;;;;;;;;;1032338;28;19906;-77
2021/07/31 01:47:30;;;;;;;;;;;;;;;;;;1028443;28;19913;-77
2021/07/31 01:48:00;;;;;;;;;;;;;;;;;;1028398;28;19906;-77
2021/07/31 01:48:30;;;;;;;;;;;;;;;;;;1028427;28;20327;-77
2021/07/31 01:49:01;;;;;;;;;;;;;;;;;;1032567;28;20003;-77
2021/07/31 01:49:31;;;;;;;;;;;;;;;;;;1036913;28;20347;-78
2021/07/31 01:50:01;;;;;;;;;;;;;;;;;;1036486;28;19908;-78
2021/07/31 01:50:32;;;;;;;;;;;;;;;;;;1032420;28;20081;-76
2021/07/31 01:51:02;;;;;;;;;;;;;;;;;;1028772;28;20288;-78
2021/07/31 01:51:32;;;;;;;;;;;;;;;;;;1024498;29;19906;-77
2021/07/31 01:52:02;;;;;;;;;;;;;;;;;;1024590;29;20377;-78
2021/07/31 01:52:33;;;;;;;;;;;;;;;;;;1028855;28;19906;-78
2021/07/31 01:53:03;;;;;;;;;;;;;;;;;;1028609;28;19906;-78
2021/07/31 01:53:33;;;;;;;;;;;;;;;;;;1032791;28;19992;-78
2021/07/31 01:54:03;;;;;;;;;;;;;;;;;;1032967;28;19906;-78
2021/07/31 01:54:34;;;;;;;;;;;;;;;;;;1028611;28;20397;-78
2021/07/31 01:55:04;;;;;;;;;;;;;;;;;;1032836;28;20004;-79
2021/07/31 01:55:34;;;;;;;;;;;;;;;;;;1032673;28;19913;-78
2021/07/31 01:56:04;;;;;;;;;;;;;;;;;;1032526;28;19917;-77
2021/07/31 01:56:35;;;;;;;;;;;;;;;;;;1036690;28;19906;-77
2021/07/31 01:57:05;;;;;;;;;;;;;;;;;;1036495;28;20019;-76
2021/07/31 01:57:35;;;;;;;;;;;;;;;;;;1036580;28;20008;-79
2021/07/31 01:58:05;;;;;;;;;;;;;;;;;;1037331;28;19952;-78
2021/07/31 01:58:36;;;;;;;;;;;;;;;;;;1036905;28;19910;-77
2021/07/31 01:59:06;;;;;;;;;;;;;;;;;;1036389;28;19969;-76
2021/07/31 01:59:36;;;;;;;;;;;;;;;;;;1036676;28;19910;-78
2021/07/31 02:00:06;;;;;;;;;;;;;;;;;;1036891;28;19913;-78
2021/07/31 02:00:37;;;;;;;;;;;;;;;;;;1036881;28;19935;-78
2021/07/31 02:01:07;;;;;;;;;;;;;;;;;;1032531;28;19952;-76
2021/07/31 02:01:37;;;;;;;;;;;;;;;;;;1032371;28;19945;-77
2021/07/31 02:02:07;;;;;;;;;;;;;;;;;;1028466;28;19910;-77
2021/07/31 02:02:38;;;;;;;;;;;;;;;;;;1028265;28;20384;-76
2021/07/31 02:03:08;;;;;;;;;;;;;;;;;;1032239;28;20363;-78
2021/07/31 02:03:38;;;;;;;;;;;;;;;;;;1032458;28;19906;-76
2021/07/31 02:04:08;;;;;;;;;;;;;;;;;;1032478;28;20287;-77
2021/07/31 02:04:39;;;;;;;;;;;;;;;;;;1032508;28;19906;-77
2021/07/31 02:05:09;;;;;;;;;;;;;;;;;;1032455;28;19910;-78
2021/07/31 02:05:39;;;;;;;;;;;;;;;;;;1036518;28;20413;-77
2021/07/31 02:06:10;;;;;;;;;;;;;;;;;;1032444;28;19913;-77
2021/07/31 02:06:40;;;;;;;;;;;;;;;;;;1032445;28;19910;-78
2021/07/31 02:07:10;;;;;;;;;;;;;;;;;;1028265;28;20075;-76
2021/07/31 02:07:40;;;;;;;;;;;;;;;;;;1028328;28;19917;-78
2021/07/31 02:08:11;;;;;;;;;;;;;;;;;;1032639;28;19910;-77
2021/07/31 02:08:41;;;;;;;;;;;;;;;;;;1032449;28;19909;-76
2021/07/31 02:09:11;;;;;;;;;;;;;;;;;;1036648;28;19948;-76
2021/07/31 02:09:42;;;;;;;;;;;;;;;;;;1036115;28;20478;-76
2021/07/31 02:10:12;;;;;;;;;;;;;;;;;;1036686;28;19917;-78
2021/07/31 02:10:42;;;;;;;;;;;;;;;;;;1036632;28;19910;-77
2021/07/31 02:11:13;;;;;;;;;;;;;;;;;;1028483;28;19956;-77
2021/07/31 02:11:44;;;;;;;;;;;;;;;;;;1028390;28;19993;-77
2021/07/31 02:12:14;;;;;;;;;;;;;;;;;;1028486;28;20340;-77
2021/07/31 02:12:44;;;;;;;;;;;;;;;;;;1028433;28;19914;-77
2021/07/31 02:13:14;;;;;;;;;;;;;;;;;;1036374;28;19916;-77
2021/07/31 02:13:45;;;;;;;;;;;;;;;;;;1036439;28;20399;-77
2021/07/31 02:14:15;;;;;;;;;;;;;;;;;;1032478;28;19917;-77
2021/07/31 02:14:45;;;;;;;;;;;;;;;;;;1032409;28;20008;-77
2021/07/31 02:15:15;;;;;;;;;;;;;;;;;;1032389;28;19906;-77
2021/07/31 02:15:46;;;;;;;;;;;;;;;;;;1028297;28;19907;-78
2021/07/31 02:16:16;;;;;;;;;;;;;;;;;;1028352;28;19906;-77
2021/07/31 02:16:46;;;;;;;;;;;;;;;;;;1024391;29;20360;-77
2021/07/31 02:17:17;;;;;;;;;;;;;;;;;;1020560;29;19938;-77
2021/07/31 02:17:47;;;;;;;;;;;;;;;;;;1024417;28;19913;-77
2021/07/31 02:18:17;;;;;;;;;;;;;;;;;;1028491;28;19906;-77
2021/07/31 02:18:47;;;;;;;;;;;;;;;;;;1028214;28;19907;-77
2021/07/31 02:19:18;;;;;;;;;;;;;;;;;;1028393;28;20004;-77
2021/07/31 02:19:48;;;;;;;;;;;;;;;;;;1028433;28;20324;-77
2021/07/31 02:20:18;;;;;;;;;;;;;;;;;;1028337;28;19906;-77
2021/07/31 02:20:49;;;;;;;;;;;;;;;;;;1028513;28;19961;-77
2021/07/31 02:21:19;;;;;;;;;;;;;;;;;;1036780;28;20363;-77
2021/07/31 02:21:49;;;;;;;;;;;;;;;;;;1036611;28;19909;-76
2021/07/31 02:22:20;;;;;;;;;;;;;;;;;;1036677;28;20000;-76
2021/07/31 02:22:50;;;;;;;;;;;;;;;;;;1036302;28;19906;-76
2021/07/31 02:23:20;;;;;;;;;;;;;;;;;;1036472;28;20000;-77
2021/07/31 02:23:50;;;;;;;;;;;;;;;;;;1036324;28;20283;-76
2021/07/31 02:24:22;;;;;;;;;;;;;;;;;;1036510;28;19902;-76
2021/07/31 02:24:52;;;;;;;;;;;;;;;;;;1045787;22;19906;-76
2021/07/31 02:25:22;;;;;;;;;;;;;;;;;;1035433;28;20397;-76
2021/07/31 02:25:52;;;;;;;;;;;;;;;;;;1041330;28;19984;-76
2021/07/31 02:26:55;;;;;;;;;;;;;;;;;;1042360;28;19936;-76
2021/07/31 02:27:25;;;;;;;;;;;;;;;;;;1036313;28;20365;-77
2021/07/31 02:27:56;;;;;;;;;;;;;;;;;;1032246;28;20476;-77
2021/07/31 02:29:05;;;;;;;;;;;;;;;;;;1045709;28;19913;-93
2021/07/31 02:29:35;;;;;;;;;;;;;;;;;;1040541;28;19956;-94
2021/07/31 02:30:06;;;;;;;;;;;;;;;;;;1036391;28;19902;-94
2021/07/31 02:30:36;;;;;;;;;;;;;;;;;;1036887;28;19947;-94
2021/07/31 02:31:06;;;;;;;;;;;;;;;;;;1041594;28;19952;-95
2021/07/31 02:31:36;;;;;;;;;;;;;;;;;;1033454;28;19965;-94
2021/07/31 02:32:07;;;;;;;;;;;;;;;;;;1037399;28;19918;-94
2021/07/31 02:32:37;;;;;;;;;;;;;;;;;;1041619;28;19908;-95
2021/07/31 02:33:07;;;;;;;;;;;;;;;;;;1033413;28;19902;-95
2021/07/31 02:33:37;;;;;;;;;;;;;;;;;;1029132;28;19922;-95
2021/07/31 02:34:08;;;;;;;;;;;;;;;;;;1029358;28;19899;-95
2021/07/31 02:34:38;;;;;;;;;;;;;;;;;;1041293;28;19912;-96
2021/07/31 02:35:08;;;;;;;;;;;;;;;;;;1037158;28;20004;-95
2021/07/31 02:35:39;;;;;;;;;;;;;;;;;;1033095;28;19954;-94
2021/07/31 02:36:09;;;;;;;;;;;;;;;;;;1033184;28;19899;-94
2021/07/31 02:36:39;;;;;;;;;;;;;;;;;;1037406;28;19905;-95
2021/07/31 02:37:10;;;;;;;;;;;;;;;;;;1037267;28;19921;-94
2021/07/31 02:37:40;;;;;;;;;;;;;;;;;;1029137;28;19946;-95
2021/07/31 02:38:10;;;;;;;;;;;;;;;;;;1025487;29;19895;-94
2021/07/31 02:38:41;;;;;;;;;;;;;;;;;;1037398;28;19898;-94
2021/07/31 02:39:11;;;;;;;;;;;;;;;;;;1041402;28;19960;-94
2021/07/31 02:39:41;;;;;;;;;;;;;;;;;;1037464;28;19898;-95
2021/07/31 02:40:11;;;;;;;;;;;;;;;;;;1037356;28;19997;-94
2021/07/31 02:40:42;;;;;;;;;;;;;;;;;;1037366;28;19925;-96
2021/07/31 02:41:12;;;;;;;;;;;;;;;;;;1037386;28;19973;-94
2021/07/31 02:41:42;;;;;;;;;;;;;;;;;;1033314;28;19902;-94
2021/07/31 02:42:13;;;;;;;;;;;;;;;;;;1033127;28;19914;-95
2021/07/31 02:42:43;;;;;;;;;;;;;;;;;;1037318;28;19910;-93
2021/07/31 02:43:13;;;;;;;;;;;;;;;;;;1037538;28;19902;-94
2021/07/31 02:43:43;;;;;;;;;;;;;;;;;;1037388;28;19902;-95
2021/07/31 02:44:15;;;;;;;;;;;;;;;;;;1029408;28;19974;-94
2021/07/31 02:44:45;;;;;;;;;;;;;;;;;;1033490;28;19909;-94
2021/07/31 02:45:16;;;;;;;;;;;;;;;;;;1037450;28;19940;-94
2021/07/31 02:45:46;;;;;;;;;;;;;;;;;;1045591;28;19901;-94
2021/07/31 02:46:16;;;;;;;;;;;;;;;;;;1033312;28;19933;-94
2021/07/31 02:46:46;;;;;;;;;;;;;;;;;;1038054;28;19934;-95
2021/07/31 02:47:17;;;;;;;;;;;;;;;;;;1038102;28;19914;-95
2021/07/31 02:47:47;;;;;;;;;;;;;;;;;;1046588;28;19901;-95
2021/07/31 02:48:18;;;;;;;;;;;;;;;;;;1038010;28;19906;-95
2021/07/31 02:48:48;;;;;;;;;;;;;;;;;;1041903;28;19897;-93
2021/07/31 02:49:18;;;;;;;;;;;;;;;;;;1038172;28;19965;-95
2021/07/31 02:49:49;;;;;;;;;;;;;;;;;;1046245;28;19979;-94
2021/07/31 02:50:19;;;;;;;;;;;;;;;;;;1033984;28;19894;-95
2021/07/31 02:50:49;;;;;;;;;;;;;;;;;;1038148;28;19894;-95
2021/07/31 02:51:20;;;;;;;;;;;;;;;;;;1038002;28;19945;-94
2021/07/31 02:51:52;;;;;;;;;;;;;;;;;;1045683;28;19905;-94
2021/07/31 02:52:22;;;;;;;;;;;;;;;;;;1033258;28;19906;-94
2021/07/31 02:52:52;;;;;;;;;;;;;;;;;;1037878;28;19905;-94
2021/07/31 02:53:23;;;;;;;;;;;;;;;;;;1038197;28;19912;-95
2021/07/31 02:53:54;;;;;;;;;;;;;;;;;;1046416;28;19898;-94
2021/07/31 02:54:24;;;;;;;;;;;;;;;;;;1030190;28;19986;-94
2021/07/31 02:54:55;;;;;;;;;;;;;;;;;;1034070;28;19902;-94
2021/07/31 02:55:25;;;;;;;;;;;;;;;;;;1038277;28;19965;-94
2021/07/31 02:55:55;;;;;;;;;;;;;;;;;;1046377;28;19901;-95
2021/07/31 02:56:26;;;;;;;;;;;;;;;;;;1033965;28;19919;-94
2021/07/31 02:56:56;;;;;;;;;;;;;;;;;;1037943;28;19906;-94
2021/07/31 02:57:26;;;;;;;;;;;;;;;;;;1038080;28;19894;-94
2021/07/31 02:57:56;;;;;;;;;;;;;;;;;;1046058;28;19921;-95
2021/07/31 02:58:27;;;;;;;;;;;;;;;;;;1034088;28;19989;-94
2021/07/31 02:58:57;;;;;;;;;;;;;;;;;;1038171;28;19970;-95
2021/07/31 02:59:27;;;;;;;;;;;;;;;;;;1038078;28;19953;-94
2021/07/31 02:59:58;;;;;;;;;;;;;;;;;;1046399;28;19905;-95
2021/07/31 03:00:28;;;;;;;;;;;;;;;;;;1034008;28;19961;-96
2021/07/31 03:00:58;;;;;;;;;;;;;;;;;;1038225;28;19909;-94
2021/07/31 03:01:30;;;;;;;;;;;;;;;;;;1038147;28;19902;-94
2021/07/31 03:02:00;;;;;;;;;;;;;;;;;;1046391;28;19943;-94
2021/07/31 03:02:31;;;;;;;;;;;;;;;;;;1034176;28;19925;-95
2021/07/31 03:03:01;;;;;;;;;;;;;;;;;;1038103;28;19909;-95
2021/07/31 03:03:31;;;;;;;;;;;;;;;;;;1038011;28;19916;-96
2021/07/31 03:04:02;;;;;;;;;;;;;;;;;;1046099;28;19925;-95
2021/07/31 03:04:32;;;;;;;;;;;;;;;;;;1034000;28;19902;-95
2021/07/31 03:05:02;;;;;;;;;;;;;;;;;;1038243;28;19904;-94
2021/07/31 03:05:32;;;;;;;;;;;;;;;;;;1038147;28;19902;-96
2021/07/31 03:06:03;;;;;;;;;;;;;;;;;;1046438;28;19912;-94
2021/07/31 03:06:33;;;;;;;;;;;;;;;;;;1034089;28;19905;-96
2021/07/31 03:07:03;;;;;;;;;;;;;;;;;;1038103;28;19898;-96
2021/07/31 03:07:34;;;;;;;;;;;;;;;;;;1038200;28;19890;-94
2021/07/31 03:08:04;;;;;;;;;;;;;;;;;;1046357;28;19917;-94
2021/07/31 03:08:34;;;;;;;;;;;;;;;;;;1034254;28;20842;-95
2021/07/31 03:09:05;;;;;;;;;;;;;;;;;;1038087;28;19953;-94
2021/07/31 03:09:35;;;;;;;;;;;;;;;;;;1042321;23;19913;-78
2021/07/31 03:10:06;;;;;;;;;;;;;;;;;;1032968;28;19921;-77
2021/07/31 03:10:37;;;;;;;;;;;;;;;;;;1036767;28;19908;-77
2021/07/31 03:11:07;;;;;;;;;;;;;;;;;;1034881;28;19906;-77
2021/07/31 03:11:37;;;;;;;;;;;;;;;;;;1039095;28;19908;-77
2021/07/31 03:12:07;;;;;;;;;;;;;;;;;;1042745;28;19913;-78
2021/07/31 03:12:38;;;;;;;;;;;;;;;;;;1037864;28;20012;-77
2021/07/31 03:13:08;;;;;;;;;;;;;;;;;;1037305;28;20000;-77
2021/07/31 03:13:38;;;;;;;;;;;;;;;;;;1038024;28;19968;-78
2021/07/31 03:14:08;;;;;;;;;;;;;;;;;;1041608;28;19906;-77
2021/07/31 03:14:39;;;;;;;;;;;;;;;;;;1037154;28;19906;-76
2021/07/31 03:15:09;;;;;;;;;;;;;;;;;;1036811;28;19917;-76
2021/07/31 03:15:39;;;;;;;;;;;;;;;;;;1037044;28;19992;-78
2021/07/31 03:16:09;;;;;;;;;;;;;;;;;;1036973;28;19913;-77
2021/07/31 03:16:40;;;;;;;;;;;;;;;;;;1037012;28;20311;-77
2021/07/31 03:17:10;;;;;;;;;;;;;;;;;;1032914;28;19968;-76
2021/07/31 03:17:40;;;;;;;;;;;;;;;;;;1032940;28;19910;-76
2021/07/31 03:18:10;;;;;;;;;;;;;;;;;;1032882;28;19917;-76
2021/07/31 03:18:42;;;;;;;;;;;;;;;;;;1033035;28;20375;-77
2021/07/31 03:19:12;;;;;;;;;;;;;;;;;;1035038;28;19910;-78
2021/07/31 03:19:42;;;;;;;;;;;;;;;;;;1033347;28;19968;-78
2021/07/31 03:20:12;;;;;;;;;;;;;;;;;;1029022;28;19910;-78
2021/07/31 03:20:43;;;;;;;;;;;;;;;;;;1028901;28;20376;-76
2021/07/31 03:21:13;;;;;;;;;;;;;;;;;;1033283;28;19910;-77
2021/07/31 03:21:43;;;;;;;;;;;;;;;;;;1033120;28;19909;-78
2021/07/31 03:22:13;;;;;;;;;;;;;;;;;;1028942;28;19910;-77
2021/07/31 03:22:44;;;;;;;;;;;;;;;;;;1029072;28;19950;-78
2021/07/31 03:23:14;;;;;;;;;;;;;;;;;;1033296;28;20308;-77
2021/07/31 03:23:44;;;;;;;;;;;;;;;;;;1036948;28;19920;-77
2021/07/31 03:24:14;;;;;;;;;;;;;;;;;;1039766;28;19910;-77
2021/07/31 03:24:45;;;;;;;;;;;;;;;;;;1032872;28;20420;-77
2021/07/31 03:25:15;;;;;;;;;;;;;;;;;;1020918;29;19911;-76
2021/07/31 03:25:45;;;;;;;;;;;;;;;;;;1020900;29;19911;-77
2021/07/31 03:26:15;;;;;;;;;;;;;;;;;;1025091;28;19985;-77
2021/07/31 03:26:46;;;;;;;;;;;;;;;;;;1028919;28;19910;-77
2021/07/31 03:27:16;;;;;;;;;;;;;;;;;;1041009;28;19918;-77
2021/07/31 03:27:46;;;;;;;;;;;;;;;;;;1036881;28;19917;-76
2021/07/31 03:28:17;;;;;;;;;;;;;;;;;;1037029;28;19910;-76